Startpagina
METAR-TAF:

METAR-TAF

Vliegvelden :

George, Zuid-Afrika

breedte: 34-00S, lengte: 022-23E, hoogte: 193 m

Actueel weer

Dit bericht is 42 minuten geleden gemaakt, om 02:19 UTC
Wind 3 kt uit het noordwesten
Temperatuur 9°C
Vochtigheid 93%
Druk 1021 hPa
Zicht: 8000 m
Weinig wolken op 300 ft

METAR: FAGG 250219Z 32003KT 8000 FEW003 09/08 Q1021

Tijdstip: 05:01 (03:01 UTC)

Verwachting

Dit bericht is 2 uur en het 41 minuten geleden gemaakt, om 00:20 UTC
Verwachting geldig van 25 om 00 UTC tot 25 om 24 UTC
Wind 3 kt uit variabele richting
Zicht: 0600 m
op 100 ft
mist
Wijzigt naar
van 25 om 05 UTC tot 25 om 07 UTC
Wind 5 kt uit het noordnoordwesten
Zicht 10 km of meer
geen wolken onder 1500 m en geen cumulonimbus

TAF: FAGG 250020Z 2500/2524 VRB03KT 0600 FG VV001 TX26/2512Z TN08/2505Z BECMG 2505/2507 34005KT CAVOK

Waarnemingen en weersverwachtingen van meer dan 4000 vliegvelden (METAR en TAF).

De beschikbare stations zijn de gele en rode punten op de kaart.

Ga met uw muis naar het station om de naam te zien.

Klik dan om waarnemingen en weersverwachtingen te zien.

kaart wijzigen: klik op de groene knoppen met een zwart kruis om in te zoomen, op de groene knop met een streepje om uit te zoomen of op de groene pijlen voor aangrenzende kaarten.


METAR-TAF: